Time;durP1;ratioP1;P1;durP2;ratioP2;P2;SDS_P1;SDS_P2;PMS_P1;PMS_P2;Temp;Humidity;BMP_temperature;BMP_pressure;BME280_temperature;BME280_humidity;BME280_pressure;Samples;Min_cycle;Max_cycle;Signal;HPM_P1;HPM_P2
2021/06/11 00:02:00;;;;;;;8.45;7.55;;;17.00;95.20;;;;;;6255128;22;20008;-91
2021/06/11 00:04:26;;;;;;;7.97;7.18;;;17.00;95.30;;;;;;6253892;22;20046;-90
2021/06/11 00:06:52;;;;;;;8.02;6.72;;;17.00;95.50;;;;;;6253532;22;20003;-91
2021/06/11 00:09:18;;;;;;;8.02;6.82;;;17.00;95.50;;;;;;6253273;22;20485;-90
2021/06/11 00:11:45;;;;;;;8.75;7.22;;;17.00;95.50;;;;;;6253310;22;20000;-90
2021/06/11 00:14:12;;;;;;;8.90;7.82;;;17.00;95.70;;;;;;6253214;22;20099;-90
2021/06/11 00:16:38;;;;;;;8.38;6.88;;;17.00;95.80;;;;;;6252888;22;20000;-89
2021/06/11 00:19:04;;;;;;;7.38;6.57;;;17.00;95.70;;;;;;6252670;22;20022;-90
2021/06/11 00:21:32;;;;;;;8.25;7.20;;;17.00;95.70;;;;;;6280063;22;19992;-90
2021/06/11 00:23:57;;;;;;;8.27;6.40;;;17.00;95.90;;;;;;6252707;22;20005;-90
2021/06/11 00:26:23;;;;;;;8.40;7.07;;;17.00;95.90;;;;;;6252796;22;20046;-91
2021/06/11 00:28:49;;;;;;;7.05;6.35;;;17.00;95.90;;;;;;6279396;22;20000;-90
2021/06/11 00:31:15;;;;;;;8.77;7.22;;;17.00;95.90;;;;;;6257371;22;20003;-90
2021/06/11 00:33:41;;;;;;;6.97;5.93;;;17.00;95.90;;;;;;6252879;22;20430;-90
2021/06/11 00:36:09;;;;;;;8.13;6.10;;;17.00;95.90;;;;;;6253543;22;20011;-90
2021/06/11 00:38:34;;;;;;;6.88;6.03;;;17.00;95.80;;;;;;6252845;22;20004;-90
2021/06/11 00:41:00;;;;;;;11.38;8.85;;;17.00;95.80;;;;;;6253799;22;20475;-90
2021/06/11 00:43:26;;;;;;;12.82;9.20;;;17.00;96.10;;;;;;6252174;22;20443;-90
2021/06/11 00:45:52;;;;;;;18.27;14.68;;;17.00;96.00;;;;;;6252790;22;19996;-90
2021/06/11 00:48:18;;;;;;;23.17;19.23;;;17.00;96.20;;;;;;6252690;22;20050;-90
2021/06/11 00:50:44;;;;;;;21.48;18.38;;;17.00;96.20;;;;;;6252700;22;20006;-90
2021/06/11 00:53:10;;;;;;;25.60;20.77;;;17.00;96.30;;;;;;6252644;22;20007;-90
2021/06/11 00:55:37;;;;;;;25.35;22.65;;;17.00;96.30;;;;;;6252526;22;20004;-90
2021/06/11 00:58:03;;;;;;;27.15;22.27;;;17.00;96.50;;;;;;6279439;22;19996;-90
2021/06/11 01:00:31;;;;;;;31.08;25.58;;;17.00;96.40;;;;;;6253953;22;20019;-90
2021/06/11 01:02:57;;;;;;;31.17;25.42;;;17.00;96.60;;;;;;6276198;22;20003;-91
2021/06/11 01:05:23;;;;;;;28.50;22.15;;;17.00;96.70;;;;;;6276739;22;20010;-89
2021/06/11 01:07:52;;;;;;;24.08;20.05;;;17.00;96.70;;;;;;6276957;22;20014;-90
2021/06/11 01:10:18;;;;;;;16.45;12.02;;;17.00;96.90;;;;;;6274021;22;20011;-89
2021/06/11 01:12:47;;;;;;;13.43;10.48;;;17.00;96.80;;;;;;6252940;22;19999;-90
2021/06/11 01:15:13;;;;;;;11.23;8.63;;;17.00;96.80;;;;;;6252992;22;20493;-90
2021/06/11 01:17:40;;;;;;;9.25;8.13;;;17.00;96.90;;;;;;6247033;23;20016;-91
2021/06/11 01:20:16;;;;;;;10.25;9.10;;;17.00;96.90;;;;;;6247662;23;20008;-90
2021/06/11 01:22:56;;;;;;;9.15;7.93;;;17.00;97.10;;;;;;6247965;23;20107;-91
2021/06/11 01:25:52;;;;;;;9.55;7.53;;;17.00;97.20;;;;;;6247600;23;20004;-91
2021/06/11 01:28:19;;;;;;;7.13;5.93;;;17.00;97.00;;;;;;6248310;23;20004;-90
2021/06/11 01:30:45;;;;;;;7.95;5.75;;;17.00;97.00;;;;;;6247385;23;20008;-90
2021/06/11 01:33:13;;;;;;;7.88;6.88;;;17.00;96.90;;;;;;6247444;23;20424;-91
2021/06/11 01:36:01;;;;;;;9.20;6.22;;;17.00;97.00;;;;;;6247129;23;20331;-91
2021/06/11 01:38:35;;;;;;;5.70;5.13;;;17.00;97.00;;;;;;6247265;23;19996;-91
2021/06/11 01:41:03;;;;;;;6.45;5.40;;;17.00;96.90;;;;;;6247541;23;20004;-90
2021/06/11 01:43:30;;;;;;;7.00;6.30;;;17.00;96.90;;;;;;6247373;22;20012;-91
2021/06/11 01:45:56;;;;;;;8.68;6.50;;;17.00;97.00;;;;;;6248562;22;20343;-90
2021/06/11 01:48:25;;;;;;;9.25;7.63;;;17.00;97.00;;;;;;6247227;23;19996;-90
2021/06/11 01:50:55;;;;;;;7.97;6.35;;;17.00;97.10;;;;;;6221411;23;20451;-90
2021/06/11 01:53:26;;;;;;;7.50;5.57;;;17.00;97.00;;;;;;6247507;23;20039;-91
2021/06/11 01:55:52;;;;;;;7.20;6.25;;;17.00;97.00;;;;;;6260896;23;20011;-90
2021/06/11 01:58:19;;;;;;;7.75;6.47;;;17.00;97.10;;;;;;6258599;23;20004;-91
2021/06/11 02:00:46;;;;;;;6.40;5.38;;;17.00;97.00;;;;;;6259562;23;20023;-91
2021/06/11 02:03:16;;;;;;;8.13;5.22;;;17.00;96.90;;;;;;6253507;23;20007;-91
2021/06/11 02:05:46;;;;;;;8.23;6.57;;;17.00;97.00;;;;;;6249366;23;20008;-91
2021/06/11 02:08:13;;;;;;;8.60;6.70;;;17.00;97.00;;;;;;6247920;23;20451;-90
2021/06/11 02:10:39;;;;;;;8.20;6.50;;;17.00;97.00;;;;;;6247645;23;20436;-91
2021/06/11 02:13:07;;;;;;;8.30;7.03;;;17.00;97.00;;;;;;6247202;23;20436;-91
2021/06/11 02:15:33;;;;;;;7.00;5.97;;;17.00;97.00;;;;;;6246893;23;20088;-90
2021/06/11 02:17:59;;;;;;;8.73;7.00;;;17.00;97.00;;;;;;6246904;23;20012;-90
2021/06/11 02:20:26;;;;;;;9.15;7.80;;;17.00;97.00;;;;;;6222023;23;20004;-90
2021/06/11 02:22:53;;;;;;;9.25;7.75;;;17.00;97.20;;;;;;6246732;23;20139;-90
2021/06/11 02:25:24;;;;;;;6.88;5.82;;;17.00;97.20;;;;;;6246677;23;20000;-90
2021/06/11 02:27:53;;;;;;;9.57;7.47;;;17.00;97.20;;;;;;6246828;23;20004;-91
2021/06/11 02:30:26;;;;;;;8.43;6.95;;;17.00;97.20;;;;;;6221550;23;20359;-90
2021/06/11 02:32:52;;;;;;;7.13;5.90;;;17.00;97.40;;;;;;6247042;23;20004;-90
2021/06/11 02:35:24;;;;;;;7.22;5.93;;;17.00;97.10;;;;;;6221657;23;20066;-90
2021/06/11 02:37:51;;;;;;;9.25;7.60;;;17.10;97.30;;;;;;6246929;23;20008;-90
2021/06/11 02:40:18;;;;;;;8.57;6.90;;;17.10;97.30;;;;;;6246653;23;20457;-91
2021/06/11 02:42:47;;;;;;;10.82;8.07;;;17.10;97.20;;;;;;6263975;22;20015;-89
2021/06/11 02:45:22;;;;;;;11.18;8.20;;;17.10;97.50;;;;;;6270215;23;20023;-89
2021/06/11 02:48:00;;;;;;;9.85;7.72;;;17.10;97.90;;;;;;6271340;22;20032;-89
2021/06/11 02:50:35;;;;;;;7.55;6.65;;;17.10;97.60;;;;;;6269799;23;19993;-90
2021/06/11 02:53:02;;;;;;;8.15;6.60;;;17.10;97.60;;;;;;6247394;23;20028;-90
2021/06/11 02:55:30;;;;;;;8.77;7.30;;;17.10;97.70;;;;;;6252039;23;20305;-90
2021/06/11 02:58:19;;;;;;;8.65;7.80;;;17.20;97.70;;;;;;6246560;23;20002;-90
2021/06/11 03:00:47;;;;;;;9.93;8.48;;;17.20;97.70;;;;;;6247039;23;20000;-91
2021/06/11 03:03:20;;;;;;;10.05;8.05;;;17.20;97.90;;;;;;6247792;23;20027;-90
2021/06/11 03:05:50;;;;;;;9.88;8.23;;;17.20;97.80;;;;;;6246901;23;20004;-90
2021/06/11 03:08:22;;;;;;;12.15;8.52;;;17.10;97.90;;;;;;6247002;23;20004;-90
2021/06/11 03:10:53;;;;;;;10.27;7.60;;;17.10;97.90;;;;;;6245903;23;20001;-90
2021/06/11 03:13:20;;;;;;;10.55;7.07;;;17.10;98.00;;;;;;6246446;23;20327;-90
2021/06/11 03:15:46;;;;;;;7.78;6.95;;;17.20;98.10;;;;;;6246934;23;20150;-90
2021/06/11 03:18:40;;;;;;;8.10;6.85;;;17.20;98.10;;;;;;6246003;23;20016;-90
2021/06/11 03:21:27;;;;;;;11.90;9.47;;;17.20;98.10;;;;;;6227985;23;20399;-91
2021/06/11 03:23:56;;;;;;;8.13;7.28;;;17.30;98.20;;;;;;6246075;23;20677;-90
2021/06/11 03:26:29;;;;;;;11.13;8.70;;;17.20;98.10;;;;;;6247483;22;20000;-90
2021/06/11 03:28:58;;;;;;;8.80;7.80;;;17.30;98.10;;;;;;6246363;23;20028;-90
2021/06/11 03:31:35;;;;;;;9.50;7.82;;;17.30;98.10;;;;;;6245896;23;20000;-90
2021/06/11 03:34:04;;;;;;;9.30;7.65;;;17.30;98.10;;;;;;6246161;23;20015;-91
2021/06/11 03:36:37;;;;;;;7.53;6.40;;;17.30;98.10;;;;;;6246022;23;20028;-90
2021/06/11 03:39:06;;;;;;;;;;;17.30;98.00;;;;;;6246297;23;20000;-90
2021/06/11 03:41:36;;;;;;;9.50;6.88;;;17.30;98.50;;;;;;6247644;22;19907;-91
2021/06/11 03:44:08;;;;;;;7.63;6.78;;;17.30;98.20;;;;;;6246056;23;20104;-91
2021/06/11 03:46:37;;;;;;;9.68;8.23;;;17.40;97.80;;;;;;6245741;23;20001;-91
2021/06/11 03:49:03;;;;;;;11.65;8.85;;;17.40;97.90;;;;;;6246282;23;20038;-90
2021/06/11 03:51:30;;;;;;;10.18;8.68;;;17.40;98.10;;;;;;6248124;23;19997;-92
2021/06/11 03:54:00;;;;;;;10.07;7.95;;;17.40;98.00;;;;;;6247820;23;20011;-90
2021/06/11 03:56:30;;;;;;;11.63;9.65;;;17.40;97.90;;;;;;6249053;23;20019;-90
2021/06/11 03:58:57;;;;;;;10.27;8.80;;;17.30;98.00;;;;;;6247223;23;20046;-92
2021/06/11 04:01:27;;;;;;;10.90;9.40;;;17.30;98.20;;;;;;6248157;23;20042;-92
2021/06/11 04:03:54;;;;;;;11.57;9.27;;;17.30;98.40;;;;;;6249173;23;20004;-91
2021/06/11 04:06:37;;;;;;;10.05;9.00;;;17.30;98.20;;;;;;6248807;23;20001;-90
2021/06/11 04:09:12;;;;;;;9.23;7.97;;;17.30;98.20;;;;;;6248067;23;20002;-91
2021/06/11 04:11:45;;;;;;;10.90;9.07;;;17.30;98.50;;;;;;6247389;23;20001;-90
2021/06/11 04:14:21;;;;;;;11.02;9.55;;;17.30;98.60;;;;;;6247669;23;20416;-91
2021/06/11 04:16:50;;;;;;;10.43;8.50;;;17.30;98.70;;;;;;6246254;23;20008;-91
2021/06/11 04:19:23;;;;;;;10.38;8.63;;;17.30;98.50;;;;;;6245181;23;20063;-91
2021/06/11 04:21:50;;;;;;;11.68;10.48;;;17.30;98.80;;;;;;6253201;23;19996;-89
2021/06/11 04:24:21;;;;;;;10.50;8.48;;;17.30;98.70;;;;;;6266540;23;20001;-89
2021/06/11 04:26:48;;;;;;;8.07;6.82;;;17.20;98.50;;;;;;6267545;22;20005;-90
2021/06/11 04:29:30;;;;;;;8.82;7.30;;;17.30;98.60;;;;;;6264583;23;20007;-90
2021/06/11 04:31:59;;;;;;;7.47;6.57;;;17.30;98.70;;;;;;6250751;23;20370;-91
2021/06/11 04:34:25;;;;;;;8.00;6.88;;;17.30;98.70;;;;;;6221360;23;20012;-91
2021/06/11 04:36:53;;;;;;;9.65;8.18;;;17.40;98.70;;;;;;6246866;23;20397;-91
2021/06/11 04:39:22;;;;;;;9.25;7.18;;;17.40;98.70;;;;;;6246452;23;19996;-92
2021/06/11 04:41:51;;;;;;;7.97;6.97;;;17.40;98.60;;;;;;6247614;22;20007;-91
2021/06/11 04:44:18;;;;;;;10.80;7.93;;;17.50;98.60;;;;;;6222103;23;20004;-91
2021/06/11 04:46:49;;;;;;;8.77;6.93;;;17.50;98.60;;;;;;6222328;23;20366;-91
2021/06/11 04:49:15;;;;;;;8.50;6.97;;;17.50;98.50;;;;;;6224640;23;20058;-92
2021/06/11 04:51:41;;;;;;;7.55;6.30;;;17.50;98.60;;;;;;6248231;23;20005;-91
2021/06/11 04:54:14;;;;;;;6.22;5.32;;;17.50;98.60;;;;;;6222027;23;20007;-92
2021/06/11 04:56:47;;;;;;;7.65;6.60;;;17.50;98.70;;;;;;6223400;23;20008;-92
2021/06/11 04:59:21;;;;;;;7.22;5.75;;;17.60;98.60;;;;;;6247826;23;20082;-93
2021/06/11 05:01:50;;;;;;;7.13;5.90;;;17.60;98.50;;;;;;6247284;23;20007;-93
2021/06/11 05:04:23;;;;;;;7.28;6.00;;;17.60;98.50;;;;;;6222067;23;20450;-93
2021/06/11 05:09:47;;;;;;;7.18;6.05;;;17.60;98.50;;;;;;6232779;23;20026;-92
2021/06/11 05:12:34;;;;;;;8.70;6.68;;;17.60;98.60;;;;;;6222369;23;20000;-93
2021/06/11 05:15:17;;;;;;;8.93;7.05;;;17.70;98.50;;;;;;6246350;22;20004;-93
2021/06/11 05:20:29;;;;;;;8.77;7.35;;;17.70;98.50;;;;;;6242875;23;20062;-93
2021/06/11 05:22:59;;;;;;;9.60;8.00;;;17.60;98.60;;;;;;6247810;23;20355;-93
2021/06/11 05:25:35;;;;;;;;;;;;;;;;;;;;;
2021/06/11 05:28:10;;;;;;;9.23;7.63;;;17.70;98.80;;;;;;6249632;23;20079;-93
2021/06/11 05:30:45;;;;;;;11.02;8.23;;;17.70;98.80;;;;;;6247660;23;20004;-93
2021/06/11 05:33:17;;;;;;;9.27;8.27;;;17.70;98.60;;;;;;6248767;22;20083;-93
2021/06/11 05:35:47;;;;;;;9.75;8.23;;;17.70;98.60;;;;;;6247100;23;20372;-92
2021/06/11 05:38:22;;;;;;;12.13;9.98;;;17.70;98.70;;;;;;6247584;23;20008;-93
2021/06/11 05:40:53;;;;;;;8.63;7.05;;;17.70;99.00;;;;;;6247820;23;20004;-93
2021/06/11 05:43:30;;;;;;;9.10;7.85;;;17.70;99.10;;;;;;6248296;23;20054;-92
2021/06/11 05:46:07;;;;;;;;;;;;;;;;;;;;;
2021/06/11 05:48:40;;;;;;;9.38;8.32;;;17.70;99.30;;;;;;6249439;22;20075;-92
2021/06/11 05:51:28;;;;;;;8.90;7.43;;;17.80;99.30;;;;;;6246701;23;20008;-92
2021/06/11 05:55:04;;;;;;;;;;;;;;;;;;;;;
2021/06/11 05:57:33;;;;;;;8.82;7.22;;;17.90;99.20;;;;;;6158272;22;20504;-93
2021/06/11 06:00:06;;;;;;;8.02;6.60;;;18.00;99.00;;;;;;6246835;23;20032;-92
2021/06/11 06:02:56;;;;;;;;;;;;;;;;;;;;;
2021/06/11 06:05:23;;;;;;;7.00;5.13;;;18.10;99.00;;;;;;6252719;23;20027;-92
2021/06/11 06:08:18;;;;;;;6.35;5.45;;;18.10;99.10;;;;;;6248129;23;20407;-93
2021/06/11 06:10:41;;;;;;;6.63;5.93;;;18.30;98.90;;;;;;6246154;22;20032;-92
2021/06/11 06:13:16;;;;;;;5.57;4.57;;;18.30;98.10;;;;;;6247714;23;20009;-94
2021/06/11 06:15:48;;;;;;;7.22;5.10;;;18.40;97.80;;;;;;6252628;22;20169;-93
2021/06/11 06:18:19;;;;;;;5.47;4.20;;;18.40;97.70;;;;;;6260940;23;20015;-93
2021/06/11 06:20:49;;;;;;;6.82;4.47;;;18.50;98.10;;;;;;6267730;23;19984;-93
2021/06/11 06:23:22;;;;;;;5.28;4.78;;;18.70;98.20;;;;;;6268868;23;20052;-91
2021/06/11 06:26:00;;;;;;;6.32;5.43;;;18.80;97.70;;;;;;6268431;23;20000;-91
2021/06/11 06:28:34;;;;;;;6.35;4.93;;;18.90;96.60;;;;;;6254334;23;20000;-93
2021/06/11 06:30:59;;;;;;;;;;;18.90;96.70;;;;;;6250078;23;20008;-93
2021/06/11 06:33:30;;;;;;;8.15;6.30;;;19.00;96.40;;;;;;6247213;23;19950;-92
2021/06/11 06:36:02;;;;;;;7.75;6.20;;;19.00;96.10;;;;;;6223133;23;20004;-91
2021/06/11 06:38:33;;;;;;;6.75;5.32;;;19.10;95.60;;;;;;6223123;23;20030;-92
2021/06/11 06:41:00;;;;;;;5.28;4.57;;;19.00;95.00;;;;;;6247298;23;20060;-92
2021/06/11 06:43:32;;;;;;;7.97;5.07;;;19.00;95.00;;;;;;6221057;23;20079;-92
2021/06/11 06:46:11;;;;;;;;;;;;;;;;;;;;;
2021/06/11 06:48:40;;;;;;;6.10;4.47;;;19.00;95.00;;;;;;6247697;23;20087;-93
2021/06/11 06:51:25;;;;;;;4.88;4.22;;;19.10;94.70;;;;;;6221574;23;20036;-92
2021/06/11 06:53:55;;;;;;;4.78;4.10;;;19.20;93.90;;;;;;6246461;23;20008;-92
2021/06/11 06:56:30;;;;;;;6.20;4.40;;;19.10;94.30;;;;;;6246097;23;20067;-93
2021/06/11 06:59:04;;;;;;;4.32;3.67;;;19.20;94.70;;;;;;6245901;23;20008;-92
2021/06/11 07:01:32;;;;;;;4.57;3.67;;;19.30;94.80;;;;;;6220730;23;20008;-92
2021/06/11 07:04:02;;;;;;;5.55;4.57;;;19.50;94.70;;;;;;6220908;23;20004;-91
2021/06/11 07:06:28;;;;;;;4.68;4.28;;;19.60;93.50;;;;;;6223977;23;20008;-91
2021/06/11 07:08:56;;;;;;;3.92;3.40;;;19.60;93.20;;;;;;6221220;23;20000;-91
2021/06/11 07:11:32;;;;;;;7.68;4.93;;;19.60;93.30;;;;;;6222679;23;19996;-91
2021/06/11 07:13:58;;;;;;;5.13;4.63;;;19.70;93.20;;;;;;6247152;23;20012;-92
2021/06/11 07:16:26;;;;;;;5.70;4.57;;;19.80;93.00;;;;;;6221924;23;20000;-93
2021/06/11 07:18:58;;;;;;;6.72;5.28;;;19.80;93.00;;;;;;6248302;23;20015;-91
2021/06/11 07:21:26;;;;;;;8.13;5.63;;;19.90;92.70;;;;;;6247503;23;20057;-89
2021/06/11 07:23:52;;;;;;;6.50;5.80;;;19.90;92.30;;;;;;6246442;23;20001;-91
2021/06/11 07:26:27;;;;;;;5.70;5.10;;;19.90;92.20;;;;;;6245974;23;20009;-92
2021/06/11 07:28:56;;;;;;;6.68;4.70;;;19.90;92.40;;;;;;6246488;23;20328;-92
2021/06/11 07:31:22;;;;;;;8.02;6.28;;;19.90;92.80;;;;;;6219719;23;20008;-91
2021/06/11 07:33:50;;;;;;;7.88;5.55;;;19.80;92.50;;;;;;6221149;23;20000;-91
2021/06/11 07:36:24;;;;;;;6.95;6.05;;;19.90;92.30;;;;;;6247376;23;20008;-92
2021/06/11 07:38:52;;;;;;;7.13;5.43;;;19.90;92.30;;;;;;6245226;22;20042;-91
2021/06/11 07:41:18;;;;;;;6.90;6.20;;;19.90;92.30;;;;;;6247314;23;19999;-91
2021/06/11 07:43:46;;;;;;;6.15;5.55;;;19.90;91.90;;;;;;6221092;23;20004;-92
2021/06/11 07:46:15;;;;;;;6.20;5.28;;;19.90;92.20;;;;;;6245685;23;20008;-91
2021/06/11 07:48:46;;;;;;;7.60;5.00;;;19.90;91.90;;;;;;6246710;23;20004;-92
2021/06/11 07:51:14;;;;;;;5.30;4.75;;;20.00;92.00;;;;;;6222472;23;20027;-92
2021/06/11 07:53:45;;;;;;;5.47;4.88;;;20.00;92.40;;;;;;6247058;23;20004;-92
2021/06/11 07:56:29;;;;;;;5.90;5.30;;;20.10;92.60;;;;;;6220931;23;20014;-92
2021/06/11 07:58:55;;;;;;;5.10;4.63;;;20.20;91.90;;;;;;6245753;23;20047;-92
2021/06/11 08:01:21;;;;;;;6.43;4.75;;;20.30;91.20;;;;;;6221621;23;20000;-92
2021/06/11 08:03:47;;;;;;;5.00;4.45;;;20.30;91.20;;;;;;6222048;23;20004;-93
2021/06/11 08:06:13;;;;;;;4.28;3.83;;;20.40;91.40;;;;;;6246054;23;20514;-92
2021/06/11 08:08:44;;;;;;;4.82;4.43;;;20.60;91.40;;;;;;6220791;23;20319;-91
2021/06/11 08:11:13;;;;;;;4.47;4.03;;;20.90;91.60;;;;;;6220673;23;20037;-91
2021/06/11 08:13:39;;;;;;;5.93;4.68;;;21.10;90.60;;;;;;6247388;23;20008;-91
2021/06/11 08:16:08;;;;;;;4.47;4.07;;;21.20;90.00;;;;;;6222994;23;20009;-92
2021/06/11 08:18:39;;;;;;;5.13;4.63;;;21.20;89.00;;;;;;6222296;23;20087;-91
2021/06/11 08:21:07;;;;;;;5.70;5.15;;;21.20;88.20;;;;;;6226763;23;20019;-91
2021/06/11 08:23:36;;;;;;;4.40;3.95;;;21.10;87.90;;;;;;6263343;23;20054;-91
2021/06/11 08:26:02;;;;;;;4.53;4.13;;;21.10;88.20;;;;;;6263276;23;19997;-88
2021/06/11 08:28:28;;;;;;;3.40;3.10;;;21.00;86.70;;;;;;6235533;23;20004;-89
2021/06/11 08:30:53;;;;;;;4.07;3.67;;;20.90;87.10;;;;;;6243641;23;20083;-89
2021/06/11 08:33:19;;;;;;;3.70;2.90;;;20.90;86.30;;;;;;6227711;23;20054;-89
2021/06/11 08:35:45;;;;;;;2.67;2.47;;;20.80;87.40;;;;;;6225299;23;20008;-89
2021/06/11 08:38:12;;;;;;;2.78;2.58;;;20.80;86.60;;;;;;6224609;23;20008;-89
2021/06/11 08:40:38;;;;;;;2.05;1.88;;;20.90;86.40;;;;;;6250260;23;20038;-90
2021/06/11 08:43:05;;;;;;;2.42;2.22;;;20.90;85.60;;;;;;6250518;23;20004;-90
2021/06/11 08:45:31;;;;;;;2.22;2.03;;;20.90;85.30;;;;;;6249377;23;20007;-90
2021/06/11 08:47:58;;;;;;;2.05;1.95;;;20.60;86.20;;;;;;6249020;23;20075;-90
2021/06/11 08:50:29;;;;;;;1.75;1.65;;;20.50;87.20;;;;;;6222742;23;20004;-90
2021/06/11 08:52:56;;;;;;;2.03;1.85;;;20.40;88.00;;;;;;6248641;23;20047;-90
2021/06/11 08:55:22;;;;;;;2.20;2.00;;;20.40;88.90;;;;;;6247175;23;20095;-90
2021/06/11 08:57:48;;;;;;;2.20;2.00;;;20.50;88.80;;;;;;6247740;23;20016;-90
2021/06/11 09:00:14;;;;;;;1.70;1.60;;;20.30;87.50;;;;;;6222440;23;20004;-90
2021/06/11 09:03:22;;;;;;;2.25;1.90;;;20.30;87.90;;;;;;6246805;23;20031;-89
2021/06/11 09:06:05;;;;;;;2.35;2.15;;;20.10;88.20;;;;;;6246478;23;20007;-90
2021/06/11 09:08:32;;;;;;;1.70;1.60;;;20.10;88.50;;;;;;6246614;23;20056;-90
2021/06/11 09:11:17;;;;;;;2.38;2.17;;;20.10;89.20;;;;;;6246472;23;20416;-90
2021/06/11 09:13:44;;;;;;;2.33;1.73;;;20.20;87.80;;;;;;6246450;23;20012;-90
2021/06/11 09:16:24;;;;;;;2.28;1.73;;;20.30;89.00;;;;;;6246638;23;20008;-90
2021/06/11 09:18:59;;;;;;;2.28;2.08;;;20.40;88.10;;;;;;6246000;22;20020;-89
2021/06/11 09:21:36;;;;;;;1.77;1.67;;;20.50;88.00;;;;;;6246671;23;20000;-90
2021/06/11 09:24:16;;;;;;;2.38;2.17;;;20.60;87.10;;;;;;6247957;23;20007;-89
2021/06/11 09:26:43;;;;;;;2.35;2.13;;;20.70;85.80;;;;;;6248280;22;20000;-90
2021/06/11 09:29:26;;;;;;;3.05;2.70;;;20.70;85.50;;;;;;6225926;23;20079;-91
2021/06/11 09:31:57;;;;;;;2.13;1.98;;;20.80;84.50;;;;;;6249009;23;20004;-91
2021/06/11 09:34:30;;;;;;;5.15;2.50;;;20.90;85.70;;;;;;6257254;22;20008;-91
2021/06/11 09:37:44;;;;;;;;;;;;;;;;;;;;;
2021/06/11 09:40:23;;;;;;;3.10;2.75;;;21.30;82.10;;;;;;6257109;23;20051;-91
2021/06/11 09:43:00;;;;;;;3.60;3.30;;;21.50;82.00;;;;;;6250863;23;20083;-92
2021/06/11 09:53:07;;;;;;;4.78;3.92;;;21.40;81.00;;;;;;6205006;23;20331;-94
2021/06/11 09:55:50;;;;;;;;;;;;;;;;;;;;;
2021/06/11 09:58:31;;;;;;;;;;;21.10;82.20;;;;;;6248087;23;20087;-93
2021/06/11 10:01:32;;;;;;;4.43;3.92;;;21.10;81.90;;;;;;6247726;23;19903;-93
2021/06/11 10:03:59;;;;;;;4.30;3.75;;;21.30;82.90;;;;;;6245441;23;20055;-91
2021/06/11 10:06:31;;;;;;;3.83;3.45;;;21.30;82.30;;;;;;6246550;23;20047;-92
2021/06/11 10:09:10;;;;;;;;;;;;;;;;;;;;;
2021/06/11 10:11:39;;;;;;;4.20;3.80;;;21.30;81.20;;;;;;6246848;22;20084;-93
2021/06/11 10:14:09;;;;;;;3.45;3.15;;;21.40;81.20;;;;;;6248218;22;20023;-91
2021/06/11 10:16:47;;;;;;;3.93;3.53;;;21.50;81.10;;;;;;6247664;22;20020;-93
2021/06/11 10:19:20;;;;;;;3.25;2.95;;;21.60;81.50;;;;;;6246658;23;20012;-92
2021/06/11 10:22:08;;;;;;;2.78;2.58;;;21.70;80.90;;;;;;6248059;23;20127;-92
2021/06/11 10:24:40;;;;;;;2.80;2.50;;;21.70;80.30;;;;;;6246036;23;20007;-93
2021/06/11 10:27:09;;;;;;;2.90;2.60;;;21.80;80.80;;;;;;6224057;23;20008;-92
2021/06/11 10:30:45;;;;;;;;;;;;;;;;;;;;;
2021/06/11 10:34:13;;;;;;;2.38;2.17;;;22.00;76.20;;;;;;6155233;23;20031;-93
2021/06/11 10:37:26;;;;;;;2.30;2.10;;;21.90;76.60;;;;;;6267503;22;20012;-92
2021/06/11 10:40:24;;;;;;;2.10;2.00;;;21.80;76.50;;;;;;6267760;22;20064;-92
2021/06/11 10:43:16;;;;;;;2.38;2.17;;;21.80;75.20;;;;;;6259195;22;19988;-93
2021/06/11 10:45:46;;;;;;;2.30;2.10;;;21.80;74.90;;;;;;6263040;23;20511;-94
2021/06/11 10:58:59;;;;;;;;;;;;;;;;;;;;;
2021/06/11 11:12:36;;;;;;;2.35;2.15;;;22.20;75.20;;;;;;6017635;23;20022;-95
2021/06/11 11:30:10;;;;;;;2.65;2.45;;;21.70;74.20;;;;;;6075881;23;20395;-94
2021/06/11 11:39:33;;;;;;;;;;;;;;;;;;;;;
2021/06/11 11:46:17;;;;;;;;;;;;;;;;;;;;;
2021/06/11 11:49:49;;;;;;;;;;;;;;;;;;;;;
2021/06/11 11:56:07;;;;;;;3.10;2.80;;;21.60;75.60;;;;;;6189691;23;20016;-93
2021/06/11 12:02:35;;;;;;;4.18;2.75;;;21.90;76.30;;;;;;6073404;23;20017;-93
2021/06/11 12:46:44;;;;;;;3.03;2.83;;;24.60;65.20;;;;;;6341794;22;20018;-92
2021/06/11 12:49:29;;;;;;;3.65;2.70;;;24.30;64.50;;;;;;6338217;22;20015;-93
2021/06/11 12:52:21;;;;;;;2.83;2.63;;;23.80;66.10;;;;;;6363450;22;20071;-93
2021/06/11 12:54:54;;;;;;;2.97;2.70;;;23.40;68.00;;;;;;6311188;22;20347;-91
2021/06/11 12:57:30;;;;;;;;;;;;;;;;;;;;;
2021/06/11 13:00:29;;;;;;;;;;;;;;;;;;;;;
2021/06/11 13:03:22;;;;;;;;;;;;;;;;;;;;;
2021/06/11 13:06:45;;;;;;;;;;;;;;;;;;;;;
2021/06/11 13:09:34;;;;;;;;;;;;;;;;;;;;;
2021/06/11 13:12:04;;;;;;;3.28;3.05;;;26.20;64.30;;;;;;6340669;22;20038;-93
2021/06/11 13:14:41;;;;;;;4.72;3.47;;;26.60;64.70;;;;;;6287283;22;20422;-93
2021/06/11 13:17:20;;;;;;;3.17;2.90;;;26.70;63.20;;;;;;6264846;22;20034;-92
2021/06/11 13:19:49;;;;;;;3.55;3.25;;;26.90;62.60;;;;;;6342962;22;20014;-93
2021/06/11 13:22:31;;;;;;;4.13;3.15;;;27.20;61.20;;;;;;6316644;22;20491;-91
2021/06/11 13:25:33;;;;;;;2.58;2.38;;;27.20;58.60;;;;;;6340527;22;20418;-92
2021/06/11 13:28:06;;;;;;;2.97;2.50;;;27.30;57.40;;;;;;6314036;22;20014;-93
2021/06/11 13:30:36;;;;;;;2.55;2.38;;;27.40;57.20;;;;;;6341591;22;20029;-92
2021/06/11 13:33:18;;;;;;;2.45;2.30;;;27.50;57.30;;;;;;6288548;22;20019;-92
2021/06/11 13:36:14;;;;;;;;;;;;;;;;;;;;;
2021/06/11 13:38:43;;;;;;;3.05;2.53;;;28.10;54.50;;;;;;6335495;22;20082;-92
2021/06/11 13:41:21;;;;;;;3.03;2.83;;;28.10;56.00;;;;;;6313464;22;20002;-94
2021/06/11 13:44:04;;;;;;;2.47;2.28;;;27.90;53.80;;;;;;6313303;22;20077;-92
2021/06/11 13:47:15;;;;;;;3.28;2.97;;;27.60;55.70;;;;;;6229511;22;20020;-94
2021/06/11 13:49:50;;;;;;;3.00;2.80;;;27.50;55.60;;;;;;6278459;22;20041;-92
2021/06/11 13:52:23;;;;;;;3.20;2.90;;;27.50;57.00;;;;;;6279754;22;19999;-93
2021/06/11 13:54:58;;;;;;;2.53;2.33;;;27.80;57.10;;;;;;6279005;22;20023;-94
2021/06/11 13:57:29;;;;;;;2.70;2.50;;;27.90;56.40;;;;;;6280122;22;20007;-93
2021/06/11 14:00:11;;;;;;;2.78;2.58;;;28.00;54.80;;;;;;6284081;22;20023;-92
2021/06/11 14:02:52;;;;;;;3.35;3.05;;;27.70;54.90;;;;;;6281085;22;20004;-92
2021/06/11 14:05:23;;;;;;;3.95;3.55;;;27.20;54.80;;;;;;6279089;22;20004;-91
2021/06/11 14:08:05;;;;;;;2.92;2.70;;;26.60;55.80;;;;;;6277683;22;20010;-92
2021/06/11 14:10:32;;;;;;;4.38;3.33;;;26.00;56.60;;;;;;6277767;22;20027;-91
2021/06/11 14:13:11;;;;;;;3.00;2.70;;;25.70;57.80;;;;;;6277764;22;20043;-92
2021/06/11 14:15:50;;;;;;;3.42;3.13;;;25.70;58.60;;;;;;6277189;22;20002;-94
2021/06/11 14:18:22;;;;;;;3.17;2.95;;;26.20;58.80;;;;;;6276581;22;20019;-92
2021/06/11 14:20:57;;;;;;;3.72;3.00;;;26.60;57.80;;;;;;6278626;22;19996;-91
2021/06/11 14:23:27;;;;;;;2.80;2.55;;;26.60;56.80;;;;;;6275396;22;20015;-91
2021/06/11 14:25:52;;;;;;;3.20;2.90;;;26.30;56.60;;;;;;6284326;22;20008;-94
2021/06/11 14:28:24;;;;;;;4.15;2.95;;;25.90;57.00;;;;;;6300180;22;20010;-91
2021/06/11 14:30:53;;;;;;;2.90;2.65;;;25.60;57.70;;;;;;6275201;22;20023;-90
2021/06/11 14:33:29;;;;;;;3.33;2.88;;;25.40;58.00;;;;;;6299739;22;19984;-90
2021/06/11 14:35:58;;;;;;;3.10;2.80;;;25.40;59.10;;;;;;6298823;22;20010;-92
2021/06/11 14:38:24;;;;;;;3.50;3.20;;;25.70;58.90;;;;;;6300373;22;20004;-90
2021/06/11 14:40:51;;;;;;;5.43;3.10;;;26.40;58.80;;;;;;6299272;22;20034;-92
2021/06/11 14:43:18;;;;;;;3.45;3.08;;;27.10;57.40;;;;;;6299966;22;20008;-90
2021/06/11 14:45:46;;;;;;;3.75;2.88;;;27.80;56.20;;;;;;6319580;22;20016;-90
2021/06/11 14:48:18;;;;;;;3.30;3.00;;;28.40;54.30;;;;;;6323318;22;20065;-91
2021/06/11 14:50:57;;;;;;;;;;;;;;;;;;;;;
2021/06/11 14:56:23;;;;;;;3.10;2.90;;;28.40;51.90;;;;;;6326871;22;20007;-91
2021/06/11 14:58:52;;;;;;;3.85;3.55;;;28.40;52.30;;;;;;6316569;22;20419;-91
2021/06/11 15:01:20;;;;;;;3.35;3.05;;;28.10;52.30;;;;;;6316789;22;19996;-90
2021/06/11 15:03:51;;;;;;;3.50;3.20;;;27.60;52.60;;;;;;6316162;22;20010;-91
2021/06/11 15:06:20;;;;;;;3.42;3.13;;;27.10;53.80;;;;;;6308561;22;20111;-91
2021/06/11 15:08:49;;;;;;;3.90;2.92;;;27.00;55.10;;;;;;6282394;22;20338;-91
2021/06/11 15:11:21;;;;;;;2.92;2.58;;;27.40;55.80;;;;;;6309142;22;20007;-91
2021/06/11 15:13:46;;;;;;;2.65;2.45;;;27.90;54.90;;;;;;6284440;22;20172;-91
2021/06/11 15:16:22;;;;;;;2.40;2.20;;;28.00;54.20;;;;;;6280836;22;20418;-90
2021/06/11 15:18:54;;;;;;;2.50;2.20;;;27.80;53.90;;;;;;6306432;22;20003;-91
2021/06/11 15:21:22;;;;;;;2.50;2.30;;;27.30;54.10;;;;;;6306218;22;20026;-91
2021/06/11 15:23:51;;;;;;;3.15;2.70;;;26.90;54.70;;;;;;6311442;22;19995;-91
2021/06/11 15:26:28;;;;;;;3.40;2.33;;;26.40;55.40;;;;;;6314647;22;20390;-90
2021/06/11 15:29:09;;;;;;;2.85;2.42;;;26.00;56.20;;;;;;6310193;22;20010;-91
2021/06/11 15:32:09;;;;;;;2.63;2.42;;;25.60;57.10;;;;;;6289333;22;20129;-92
2021/06/11 15:34:48;;;;;;;2.97;2.65;;;25.30;57.90;;;;;;6287031;22;20104;-93